Time;durP1;ratioP1;P1;durP2;ratioP2;P2;SDS_P1;SDS_P2;PMS_P1;PMS_P2;Temp;Humidity;BMP_temperature;BMP_pressure;BME280_temperature;BME280_humidity;BME280_pressure;Samples;Min_cycle;Max_cycle;Signal;HPM_P1;HPM_P2
2022/07/11 00:00:12;;;;;;;5.53;3.80;;;17.40;99.90;;;;;;5049538;28;20439;-42
2022/07/11 00:02:41;;;;;;;4.23;3.10;;;17.50;99.90;;;;;;5049640;28;20443;-43
2022/07/11 00:05:10;;;;;;;6.07;3.63;;;17.50;99.90;;;;;;5049328;28;20786;-44
2022/07/11 00:07:36;;;;;;;3.60;3.17;;;17.50;99.90;;;;;;5048748;28;20427;-42
2022/07/11 00:10:03;;;;;;;5.57;3.70;;;17.50;99.90;;;;;;5049409;28;20864;-43
2022/07/11 00:12:29;;;;;;;4.70;3.97;;;17.50;99.90;;;;;;5049642;28;20495;-42
2022/07/11 00:14:55;;;;;;;6.17;4.50;;;17.40;99.90;;;;;;5049112;28;20471;-43
2022/07/11 00:17:21;;;;;;;4.50;3.57;;;17.40;99.90;;;;;;5042050;28;20182;-42
2022/07/11 00:19:47;;;;;;;4.07;3.77;;;17.40;99.90;;;;;;5029490;28;20420;-42
2022/07/11 00:22:12;;;;;;;5.80;4.17;;;17.50;99.90;;;;;;5041313;28;20179;-43
2022/07/11 00:24:38;;;;;;;5.97;4.03;;;17.50;99.90;;;;;;5028297;28;20665;-42
2022/07/11 00:27:04;;;;;;;4.63;3.67;;;17.40;99.90;;;;;;5047817;28;20827;-42
2022/07/11 00:29:31;;;;;;;4.50;4.03;;;17.40;99.90;;;;;;5050177;28;20539;-42
2022/07/11 00:31:58;;;;;;;9.13;4.07;;;17.40;99.90;;;;;;5053089;28;20550;-42
2022/07/11 00:34:24;;;;;;;5.97;4.00;;;17.40;99.90;;;;;;5052919;28;20447;-42
2022/07/11 00:36:50;;;;;;;6.67;3.77;;;17.40;99.90;;;;;;5052137;28;20416;-43
2022/07/11 00:39:16;;;;;;;7.67;4.70;;;17.40;99.90;;;;;;5052913;28;20431;-43
2022/07/11 00:41:42;;;;;;;7.87;4.20;;;17.40;99.90;;;;;;5052780;28;20774;-42
2022/07/11 00:44:08;;;;;;;6.37;4.63;;;17.30;99.90;;;;;;5052935;28;20186;-42
2022/07/11 00:46:33;;;;;;;5.03;3.90;;;17.30;99.90;;;;;;5052216;28;20477;-42
2022/07/11 00:48:59;;;;;;;6.73;4.33;;;17.30;99.90;;;;;;5052598;28;20193;-43
2022/07/11 00:51:26;;;;;;;5.57;4.50;;;17.30;99.90;;;;;;5052574;28;20292;-42
2022/07/11 00:53:54;;;;;;;5.37;4.00;;;17.30;99.90;;;;;;5052401;28;20814;-44
2022/07/11 00:56:25;;;;;;;5.57;4.20;;;17.30;99.90;;;;;;5052742;28;20436;-43
2022/07/11 00:58:52;;;;;;;8.17;4.10;;;17.30;99.90;;;;;;5051940;28;20427;-44
2022/07/11 01:01:18;;;;;;;4.83;4.10;;;17.30;99.90;;;;;;5052610;28;20511;-44
2022/07/11 01:03:44;;;;;;;5.87;4.13;;;17.30;99.90;;;;;;5052061;28;20428;-43
2022/07/11 01:06:10;;;;;;;4.83;3.70;;;17.30;99.90;;;;;;5052417;28;20436;-43
2022/07/11 01:08:37;;;;;;;6.33;3.80;;;17.30;99.90;;;;;;5051631;28;20213;-42
2022/07/11 01:11:10;;;;;;;5.23;4.47;;;17.20;99.90;;;;;;5052465;28;20933;-42
2022/07/11 01:13:36;;;;;;;5.13;4.63;;;17.20;99.90;;;;;;5052002;28;20420;-43
2022/07/11 01:16:12;;;;;;;5.70;4.10;;;17.10;99.90;;;;;;5052193;28;20474;-43
2022/07/11 01:18:39;;;;;;;5.40;3.90;;;17.00;99.90;;;;;;5034255;28;20241;-44
2022/07/11 01:21:15;;;;;;;4.57;4.00;;;17.00;99.90;;;;;;5039555;28;20485;-42
2022/07/11 01:23:41;;;;;;;4.60;3.37;;;17.00;99.90;;;;;;5034761;28;20417;-43
2022/07/11 01:26:06;;;;;;;6.67;3.87;;;17.00;99.90;;;;;;5043165;28;20435;-43
2022/07/11 01:28:32;;;;;;;6.63;3.70;;;17.00;99.90;;;;;;5051375;28;20541;-43
2022/07/11 01:30:58;;;;;;;6.93;3.77;;;17.00;99.90;;;;;;5051679;28;20190;-47
2022/07/11 01:33:23;;;;;;;3.93;3.53;;;17.00;99.90;;;;;;5051882;28;20763;-43
2022/07/11 01:35:49;;;;;;;4.27;3.87;;;17.00;99.90;;;;;;5050136;28;20197;-45
2022/07/11 01:38:15;;;;;;;5.00;3.70;;;17.00;99.90;;;;;;5051187;28;20198;-45
2022/07/11 01:40:41;;;;;;;6.73;3.37;;;17.00;99.90;;;;;;5051201;28;20184;-43
2022/07/11 01:43:07;;;;;;;4.23;3.50;;;17.00;99.90;;;;;;5051474;28;20622;-42
2022/07/11 01:45:32;;;;;;;4.30;3.47;;;16.90;99.90;;;;;;5051252;28;20507;-44
2022/07/11 01:47:58;;;;;;;7.23;4.30;;;17.00;99.90;;;;;;5050999;28;20520;-43
2022/07/11 01:50:24;;;;;;;4.60;3.87;;;16.90;99.90;;;;;;5051362;28;20189;-42
2022/07/11 01:52:50;;;;;;;3.87;3.47;;;16.90;99.90;;;;;;5051427;28;20194;-42
2022/07/11 01:55:15;;;;;;;5.00;3.50;;;16.90;99.90;;;;;;5051406;28;20287;-44
2022/07/11 01:57:41;;;;;;;4.37;3.90;;;16.80;99.90;;;;;;5050541;28;20174;-42
2022/07/11 02:00:10;;;;;;;5.47;3.37;;;16.80;99.90;;;;;;5051230;28;20653;-43
2022/07/11 02:02:36;;;;;;;4.13;3.33;;;16.70;99.90;;;;;;5051150;28;20186;-42
2022/07/11 02:05:03;;;;;;;5.73;3.50;;;16.70;99.90;;;;;;5051525;28;20495;-43
2022/07/11 02:10:13;;;;;;;3.90;3.33;;;16.70;99.90;;;;;;5051117;28;20445;-42
2022/07/11 02:12:39;;;;;;;4.97;3.60;;;16.70;99.90;;;;;;5050939;28;20424;-43
2022/07/11 02:15:05;;;;;;;5.53;3.60;;;16.70;99.90;;;;;;5051048;28;20664;-42
2022/07/11 02:17:31;;;;;;;4.77;3.53;;;16.60;99.90;;;;;;5050371;28;20483;-43
2022/07/11 02:19:57;;;;;;;5.93;3.40;;;16.70;99.90;;;;;;5035257;28;20429;-42
2022/07/11 02:22:23;;;;;;;4.20;3.40;;;16.60;99.90;;;;;;5042024;28;20495;-42
2022/07/11 02:24:48;;;;;;;5.77;4.80;;;16.70;99.90;;;;;;5031105;28;20212;-43
2022/07/11 02:27:14;;;;;;;4.93;4.13;;;16.60;99.90;;;;;;5041446;28;20193;-43
2022/07/11 02:29:40;;;;;;;6.70;4.20;;;16.60;99.90;;;;;;5030739;28;20193;-43
2022/07/11 02:32:06;;;;;;;4.37;3.97;;;16.60;99.90;;;;;;5031145;28;20264;-43
2022/07/11 02:34:31;;;;;;;10.60;4.70;;;16.60;99.90;;;;;;5030721;28;20245;-43
2022/07/11 02:36:57;;;;;;;8.63;4.07;;;16.70;99.90;;;;;;5030076;28;20923;-42
2022/07/11 02:39:23;;;;;;;6.40;3.33;;;16.70;99.90;;;;;;5030704;28;20189;-42
2022/07/11 02:41:49;;;;;;;6.87;4.10;;;16.70;99.90;;;;;;5030377;28;20243;-43
2022/07/11 02:44:15;;;;;;;6.47;4.17;;;16.70;99.90;;;;;;5029372;28;20425;-42
2022/07/11 02:46:40;;;;;;;10.93;5.60;;;16.70;99.90;;;;;;5030061;28;20213;-44
2022/07/11 02:49:07;;;;;;;7.90;5.37;;;16.60;99.90;;;;;;5030485;28;20221;-45
2022/07/11 02:51:32;;;;;;;8.93;5.10;;;16.60;99.90;;;;;;5030517;28;20182;-43
2022/07/11 02:53:58;;;;;;;6.37;4.87;;;16.60;99.90;;;;;;5030571;28;20468;-44
2022/07/11 02:56:24;;;;;;;6.20;5.13;;;16.60;99.90;;;;;;5030107;28;20186;-43
2022/07/11 02:58:50;;;;;;;4.63;4.23;;;16.60;99.90;;;;;;5029988;28;20187;-43
2022/07/11 03:01:15;;;;;;;6.20;3.93;;;16.60;99.90;;;;;;5030384;28;20179;-42
2022/07/11 03:03:41;;;;;;;6.63;4.73;;;16.60;99.90;;;;;;5030365;28;20436;-42
2022/07/11 03:06:07;;;;;;;6.27;4.53;;;16.60;99.90;;;;;;5030188;28;20195;-43
2022/07/11 03:08:32;;;;;;;5.87;4.90;;;16.60;99.90;;;;;;5029644;28;20202;-44
2022/07/11 03:10:58;;;;;;;11.53;5.17;;;16.60;99.90;;;;;;5029817;28;20229;-46
2022/07/11 03:13:24;;;;;;;6.43;4.33;;;16.60;99.90;;;;;;5030137;28;20187;-43
2022/07/11 03:15:51;;;;;;;5.77;3.30;;;16.50;99.90;;;;;;5028781;28;20209;-43
2022/07/11 03:18:16;;;;;;;6.17;4.00;;;16.60;99.90;;;;;;5031222;28;20183;-43
2022/07/11 03:20:42;;;;;;;4.03;3.63;;;16.50;99.90;;;;;;5030825;28;20432;-43
2022/07/11 03:23:08;;;;;;;8.10;4.10;;;16.60;99.90;;;;;;5043591;28;20190;-45
2022/07/11 03:25:33;;;;;;;7.17;4.40;;;16.60;99.90;;;;;;5036578;28;20189;-43
2022/07/11 03:27:59;;;;;;;6.00;4.00;;;16.60;99.90;;;;;;5034465;28;20645;-42
2022/07/11 03:30:25;;;;;;;8.10;4.13;;;16.60;99.90;;;;;;5030158;28;20193;-42
2022/07/11 03:32:51;;;;;;;6.43;4.83;;;16.60;99.90;;;;;;5029958;28;20603;-44
2022/07/11 03:38:01;;;;;;;8.70;4.10;;;16.50;99.90;;;;;;5028889;28;20185;-42
2022/07/11 03:40:26;;;;;;;6.37;3.87;;;16.50;99.90;;;;;;5029966;28;20432;-42
2022/07/11 03:42:52;;;;;;;5.23;3.90;;;16.50;99.90;;;;;;5029920;28;20688;-42
2022/07/11 03:45:18;;;;;;;4.70;3.90;;;16.50;99.90;;;;;;5029836;28;20195;-42
2022/07/11 03:47:44;;;;;;;9.87;3.80;;;16.50;99.90;;;;;;5029088;28;20186;-42
2022/07/11 03:50:09;;;;;;;8.20;3.67;;;16.50;99.90;;;;;;5029692;28;20432;-43
2022/07/11 03:52:35;;;;;;;7.97;3.70;;;16.50;99.90;;;;;;5028395;28;20186;-42
2022/07/11 03:55:01;;;;;;;7.60;4.37;;;16.50;99.90;;;;;;5029561;28;20708;-44
2022/07/11 03:57:26;;;;;;;4.27;3.30;;;16.50;99.90;;;;;;5029210;28;20214;-43
2022/07/11 03:59:52;;;;;;;4.97;3.87;;;16.60;99.90;;;;;;5029563;28;20280;-42
2022/07/11 04:02:18;;;;;;;5.73;4.00;;;16.50;99.90;;;;;;5029641;28;20205;-44
2022/07/11 04:04:43;;;;;;;4.57;3.17;;;16.50;99.90;;;;;;5030973;28;20191;-43
2022/07/11 04:07:09;;;;;;;6.10;3.90;;;16.50;99.90;;;;;;5032654;28;20206;-42
2022/07/11 04:09:35;;;;;;;7.10;3.57;;;16.50;99.90;;;;;;5033686;28;20194;-45
2022/07/11 04:12:00;;;;;;;5.20;3.77;;;16.60;99.90;;;;;;5033604;28;20294;-44
2022/07/11 04:14:26;;;;;;;5.30;3.63;;;16.60;99.90;;;;;;5033384;28;20206;-43
2022/07/11 04:16:52;;;;;;;6.57;3.20;;;16.60;99.90;;;;;;5032904;28;20183;-42
2022/07/11 04:19:17;;;;;;;5.17;2.90;;;16.60;99.90;;;;;;5033475;28;20185;-42
2022/07/11 04:21:43;;;;;;;4.73;3.00;;;16.60;99.90;;;;;;5043520;28;20229;-42
2022/07/11 04:24:09;;;;;;;3.13;2.83;;;16.60;99.90;;;;;;5033584;28;20290;-43
2022/07/11 04:26:34;;;;;;;4.43;3.13;;;16.60;99.90;;;;;;5047765;28;20624;-42
2022/07/11 04:29:00;;;;;;;4.93;3.20;;;16.50;99.90;;;;;;5053046;28;20193;-42
2022/07/11 04:31:26;;;;;;;3.83;2.70;;;16.50;99.90;;;;;;5051637;28;20293;-43
2022/07/11 04:33:51;;;;;;;4.00;3.10;;;16.50;99.90;;;;;;5053019;28;20194;-42
2022/07/11 04:36:17;;;;;;;4.03;3.00;;;16.60;99.90;;;;;;5052754;28;20628;-43
2022/07/11 04:38:44;;;;;;;6.23;2.60;;;16.60;99.90;;;;;;5052561;28;20178;-44
2022/07/11 04:41:10;;;;;;;4.50;2.93;;;16.60;99.90;;;;;;5052784;28;20185;-44
2022/07/11 04:43:37;;;;;;;3.63;3.33;;;16.70;99.90;;;;;;5048494;28;20412;-44
2022/07/11 04:46:04;;;;;;;3.63;3.33;;;16.60;99.90;;;;;;5042639;28;20432;-43
2022/07/11 04:48:31;;;;;;;3.97;3.20;;;16.60;99.90;;;;;;5044351;28;20823;-43
2022/07/11 04:50:57;;;;;;;7.93;3.80;;;16.60;99.90;;;;;;5035638;28;20413;-42
2022/07/11 04:53:23;;;;;;;5.03;3.20;;;16.60;99.90;;;;;;5033056;28;20433;-43
2022/07/11 04:55:49;;;;;;;4.00;3.30;;;16.60;99.90;;;;;;5044955;28;20483;-42
2022/07/11 04:58:15;;;;;;;4.43;2.93;;;16.50;99.90;;;;;;5038778;28;20768;-43
2022/07/11 05:00:41;;;;;;;4.17;3.37;;;16.50;99.90;;;;;;5032710;28;20186;-43
2022/07/11 05:03:07;;;;;;;5.00;3.40;;;16.50;99.90;;;;;;5032570;28;20587;-42
2022/07/11 05:05:33;;;;;;;4.33;3.83;;;16.50;99.90;;;;;;5032042;28;20539;-43
2022/07/11 05:07:59;;;;;;;3.67;3.00;;;16.50;99.90;;;;;;5031938;28;20202;-43
2022/07/11 05:10:25;;;;;;;4.00;3.60;;;16.60;99.90;;;;;;5032615;28;20429;-42
2022/07/11 05:12:51;;;;;;;5.73;3.57;;;16.50;99.90;;;;;;5032483;28;20214;-45
2022/07/11 05:15:16;;;;;;;5.20;3.77;;;16.50;99.90;;;;;;5034746;28;20959;-43
2022/07/11 05:17:42;;;;;;;3.47;3.17;;;16.60;99.90;;;;;;5041548;28;20182;-44
2022/07/11 05:20:08;;;;;;;4.90;3.23;;;16.60;99.90;;;;;;5031882;28;20653;-43
2022/07/11 05:22:33;;;;;;;5.03;3.70;;;16.60;99.90;;;;;;5045336;28;20596;-43
2022/07/11 05:24:59;;;;;;;4.87;3.37;;;16.60;99.90;;;;;;5033928;28;20889;-44
2022/07/11 05:27:25;;;;;;;6.37;5.17;;;16.60;99.90;;;;;;5050211;28;20831;-43
2022/07/11 05:29:50;;;;;;;5.17;4.17;;;16.60;99.90;;;;;;5051679;28;20530;-44
2022/07/11 05:32:16;;;;;;;4.10;3.37;;;16.70;99.90;;;;;;5051764;28;20197;-43
2022/07/11 05:34:42;;;;;;;3.97;3.67;;;16.70;99.90;;;;;;5051435;28;20193;-43
2022/07/11 05:37:08;;;;;;;5.47;3.83;;;16.70;99.90;;;;;;5051228;28;20712;-43
2022/07/11 05:39:33;;;;;;;4.90;3.73;;;16.60;99.90;;;;;;5045277;28;20252;-43
2022/07/11 05:41:59;;;;;;;5.80;4.10;;;16.60;99.90;;;;;;5036070;28;20269;-42
2022/07/11 05:44:25;;;;;;;5.23;3.23;;;16.60;99.90;;;;;;5047979;28;20732;-42
2022/07/11 05:46:50;;;;;;;4.77;3.67;;;16.60;99.90;;;;;;5043121;28;20213;-43
2022/07/11 05:49:16;;;;;;;8.23;3.50;;;16.60;99.90;;;;;;5039758;28;20198;-43
2022/07/11 05:51:42;;;;;;;4.83;3.10;;;16.60;99.90;;;;;;5045686;28;20181;-42
2022/07/11 05:54:07;;;;;;;5.10;3.00;;;16.60;99.90;;;;;;5033912;28;20322;-43
2022/07/11 05:56:34;;;;;;;5.13;3.07;;;16.60;99.90;;;;;;5031037;28;20252;-43
2022/07/11 05:58:59;;;;;;;2.93;2.73;;;16.50;99.90;;;;;;5031297;28;20281;-43
2022/07/11 06:01:26;;;;;;;3.10;2.47;;;16.50;99.90;;;;;;5038514;28;20508;-42
2022/07/11 06:03:52;;;;;;;2.50;2.30;;;16.50;99.90;;;;;;5041754;28;20171;-43
2022/07/11 06:06:18;;;;;;;3.00;2.70;;;16.50;99.90;;;;;;5034509;28;20536;-43
2022/07/11 06:08:44;;;;;;;2.87;2.67;;;16.50;99.90;;;;;;5048399;28;20516;-43
2022/07/11 06:11:12;;;;;;;2.87;2.67;;;16.50;99.90;;;;;;5048240;28;20495;-46
2022/07/11 06:13:39;;;;;;;3.13;2.10;;;16.50;99.90;;;;;;5039625;28;20186;-44
2022/07/11 06:16:07;;;;;;;2.13;1.93;;;16.50;99.90;;;;;;5040649;28;20409;-43
2022/07/11 06:18:37;;;;;;;3.10;2.80;;;16.60;99.90;;;;;;5033824;28;20444;-42
2022/07/11 06:21:03;;;;;;;3.03;1.90;;;16.60;99.90;;;;;;5054426;28;20411;-44
2022/07/11 06:23:29;;;;;;;4.70;2.50;;;16.60;99.90;;;;;;5036210;28;20432;-43
2022/07/11 06:25:56;;;;;;;2.10;1.90;;;16.70;99.90;;;;;;5039374;28;20436;-43
2022/07/11 06:28:22;;;;;;;3.23;2.37;;;16.70;99.90;;;;;;5045716;28;20936;-42
2022/07/11 06:30:48;;;;;;;3.40;2.10;;;16.70;99.90;;;;;;5030716;28;20425;-42
2022/07/11 06:33:16;;;;;;;3.63;2.37;;;16.60;99.90;;;;;;5030809;28;20533;-42
2022/07/11 06:35:42;;;;;;;2.60;2.20;;;16.60;99.90;;;;;;5030831;28;20461;-42
2022/07/11 06:38:08;;;;;;;3.97;2.60;;;16.70;99.90;;;;;;5028807;28;20541;-43
2022/07/11 06:40:33;;;;;;;3.10;2.50;;;16.70;99.90;;;;;;5030649;28;20516;-42
2022/07/11 06:42:59;;;;;;;1.73;1.63;;;16.60;99.90;;;;;;5047011;28;20247;-43
2022/07/11 06:45:25;;;;;;;3.80;2.00;;;16.60;99.90;;;;;;5039557;28;20248;-43
2022/07/11 06:47:51;;;;;;;2.50;2.03;;;16.60;99.90;;;;;;5043847;28;20185;-43
2022/07/11 06:50:17;;;;;;;2.07;1.80;;;16.60;99.90;;;;;;5040417;28;20236;-42
2022/07/11 06:52:43;;;;;;;2.43;1.70;;;16.70;99.90;;;;;;5045213;28;20936;-42
2022/07/11 06:55:09;;;;;;;2.77;1.77;;;16.70;99.90;;;;;;5029890;28;20264;-46
2022/07/11 06:57:34;;;;;;;2.87;1.40;;;16.80;99.90;;;;;;5029424;28;20201;-43
2022/07/11 07:00:00;;;;;;;3.33;1.60;;;16.80;99.90;;;;;;5029501;28;20244;-45
2022/07/11 07:02:29;;;;;;;1.00;0.90;;;16.80;99.90;;;;;;5030423;28;20209;-43
2022/07/11 07:04:56;;;;;;;4.23;1.17;;;16.80;99.90;;;;;;5030276;28;20252;-43
2022/07/11 07:07:22;;;;;;;2.50;2.20;;;16.80;99.90;;;;;;5029609;28;20441;-43
2022/07/11 07:09:48;;;;;;;2.97;2.27;;;16.80;99.90;;;;;;5030420;28;20516;-42
2022/07/11 07:12:14;;;;;;;1.80;1.70;;;16.80;99.90;;;;;;5029988;28;20516;-43
2022/07/11 07:14:41;;;;;;;2.23;1.60;;;16.80;99.90;;;;;;5029956;28;20486;-43
2022/07/11 07:17:06;;;;;;;2.13;1.50;;;16.90;99.90;;;;;;5030055;28;20428;-42
2022/07/11 07:19:32;;;;;;;1.30;1.20;;;16.90;99.90;;;;;;5030241;28;20429;-42
2022/07/11 07:21:58;;;;;;;2.50;1.83;;;16.90;99.90;;;;;;5041988;28;20198;-43
2022/07/11 07:24:24;;;;;;;2.13;1.70;;;16.90;99.90;;;;;;5030013;28;20652;-44
2022/07/11 07:26:49;;;;;;;1.50;1.40;;;16.90;99.90;;;;;;5046313;28;20429;-43
2022/07/11 07:29:15;;;;;;;1.60;1.30;;;17.00;99.90;;;;;;5049741;28;20181;-43
2022/07/11 07:31:41;;;;;;;2.23;1.60;;;17.10;99.90;;;;;;5013472;28;20233;-44
2022/07/11 07:34:08;;;;;;;1.60;1.50;;;17.10;99.90;;;;;;5028692;28;20283;-42
2022/07/11 07:36:33;;;;;;;3.60;2.20;;;17.20;99.90;;;;;;5029278;28;20216;-42
2022/07/11 07:38:59;;;;;;;4.40;2.80;;;17.20;99.90;;;;;;5029139;28;20425;-45
2022/07/11 07:41:25;;;;;;;3.60;3.40;;;17.20;99.90;;;;;;5029809;28;20213;-45
2022/07/11 07:43:51;;;;;;;3.80;3.50;;;17.20;99.90;;;;;;5029504;28;20193;-46
2022/07/11 07:46:17;;;;;;;3.57;3.03;;;17.20;99.90;;;;;;5029910;28;20508;-42
2022/07/11 07:48:43;;;;;;;4.20;3.60;;;17.30;99.90;;;;;;5029178;28;20309;-44
2022/07/11 07:51:09;;;;;;;4.27;3.97;;;17.30;99.90;;;;;;5029666;28;20883;-43
2022/07/11 07:53:35;;;;;;;3.50;3.30;;;17.30;99.90;;;;;;5029767;28;20628;-42
2022/07/11 07:56:01;;;;;;;3.47;3.17;;;17.30;99.90;;;;;;5029668;28;20472;-43
2022/07/11 07:58:27;;;;;;;2.93;2.63;;;17.30;99.90;;;;;;5028953;28;20421;-42
2022/07/11 08:03:37;;;;;;;4.43;3.80;;;17.20;99.90;;;;;;5028855;28;20186;-42
2022/07/11 08:06:02;;;;;;;3.77;3.47;;;17.20;99.90;;;;;;5029570;28;20445;-47
2022/07/11 08:08:28;;;;;;;3.43;3.20;;;17.20;99.90;;;;;;5029084;28;20194;-45
2022/07/11 08:10:54;;;;;;;4.43;4.03;;;17.20;99.90;;;;;;5029372;28;20216;-45
2022/07/11 08:13:20;;;;;;;4.27;3.50;;;17.10;99.90;;;;;;5028758;28;20187;-43
2022/07/11 08:15:46;;;;;;;3.63;2.70;;;17.00;99.90;;;;;;5029233;28;20283;-42
2022/07/11 08:18:12;;;;;;;2.70;2.37;;;17.00;99.90;;;;;;5029947;28;20508;-47
2022/07/11 08:20:38;;;;;;;4.67;3.10;;;17.00;99.90;;;;;;5029564;28;20500;-43
2022/07/11 08:23:04;;;;;;;2.77;2.57;;;17.10;99.90;;;;;;5042430;28;20520;-46
2022/07/11 08:25:30;;;;;;;2.73;2.00;;;17.10;99.90;;;;;;5035308;28;20822;-42
2022/07/11 08:27:56;;;;;;;4.00;2.07;;;17.10;99.90;;;;;;5048923;28;20902;-46
2022/07/11 08:30:22;;;;;;;1.93;1.83;;;17.10;99.90;;;;;;5049278;28;20428;-43
2022/07/11 08:32:48;;;;;;;2.10;1.90;;;17.10;99.90;;;;;;5049316;28;20423;-42
2022/07/11 08:35:16;;;;;;;3.07;2.87;;;17.10;99.90;;;;;;5049236;28;20665;-42
2022/07/11 08:37:43;;;;;;;3.07;2.70;;;17.10;99.90;;;;;;5048635;28;20181;-42
2022/07/11 08:40:09;;;;;;;3.17;2.97;;;17.00;99.90;;;;;;5049339;28;20436;-43
2022/07/11 08:42:45;;;;;;;3.00;2.80;;;17.00;99.90;;;;;;5048978;28;20431;-43
2022/07/11 08:45:16;;;;;;;5.27;3.70;;;17.10;99.90;;;;;;5032310;28;20470;-43
2022/07/11 08:47:43;;;;;;;3.60;3.00;;;17.10;99.90;;;;;;5048455;28;20874;-44
2022/07/11 08:50:12;;;;;;;5.77;3.83;;;17.10;99.90;;;;;;5049682;28;20430;-43
2022/07/11 08:52:38;;;;;;;5.40;4.90;;;17.10;99.90;;;;;;5052342;28;20432;-44
2022/07/11 08:55:08;;;;;;;5.57;5.17;;;17.00;99.90;;;;;;5052876;28;20470;-46
2022/07/11 08:57:38;;;;;;;5.20;4.80;;;17.00;99.90;;;;;;5051761;28;20416;-43
2022/07/11 09:00:07;;;;;;;6.73;6.20;;;17.00;99.90;;;;;;5052779;28;20489;-43
2022/07/11 09:02:34;;;;;;;7.30;6.70;;;17.10;99.90;;;;;;5052373;28;20431;-43
2022/07/11 09:05:03;;;;;;;8.30;7.60;;;17.10;99.90;;;;;;5052453;28;20424;-42
2022/07/11 09:07:29;;;;;;;9.90;9.00;;;17.10;99.90;;;;;;5051698;28;20444;-46
2022/07/11 09:09:55;;;;;;;7.87;7.23;;;17.10;99.90;;;;;;5052479;28;20924;-44
2022/07/11 09:12:21;;;;;;;8.30;7.60;;;17.10;99.90;;;;;;5052063;28;20432;-43
2022/07/11 09:14:51;;;;;;;9.83;8.83;;;17.20;99.90;;;;;;5051410;28;20620;-44
2022/07/11 09:17:28;;;;;;;9.40;8.60;;;17.20;99.90;;;;;;5045718;28;20241;-45
2022/07/11 09:19:54;;;;;;;9.57;8.57;;;17.10;99.90;;;;;;5032352;28;20891;-45
2022/07/11 09:25:20;;;;;;;8.57;7.87;;;17.00;99.90;;;;;;5033832;28;20443;-43
2022/07/11 09:27:53;;;;;;;8.97;8.27;;;17.10;99.90;;;;;;5051425;28;20428;-43
2022/07/11 09:30:29;;;;;;;8.87;8.17;;;17.30;99.90;;;;;;5052044;28;20459;-43
2022/07/11 09:33:03;;;;;;;9.20;8.50;;;17.30;99.90;;;;;;5051945;28;20912;-44
2022/07/11 09:35:35;;;;;;;7.13;6.53;;;17.40;99.90;;;;;;5050621;28;20542;-43
2022/07/11 09:38:06;;;;;;;7.83;7.23;;;17.40;99.90;;;;;;5045766;28;20452;-43
2022/07/11 09:40:32;;;;;;;7.20;6.57;;;17.40;99.90;;;;;;5041063;28;20410;-46
2022/07/11 09:42:59;;;;;;;6.37;5.87;;;17.50;99.90;;;;;;5040411;28;20439;-43
2022/07/11 09:45:27;;;;;;;6.63;6.10;;;17.60;99.90;;;;;;5038763;28;20424;-44
2022/07/11 09:47:56;;;;;;;5.90;5.40;;;17.60;99.90;;;;;;5045933;28;20433;-43
2022/07/11 09:50:24;;;;;;;6.00;5.03;;;17.60;99.90;;;;;;5042702;28;20491;-44
2022/07/11 09:53:03;;;;;;;5.60;5.20;;;17.60;99.90;;;;;;5045297;28;20467;-43
2022/07/11 09:55:37;;;;;;;4.50;4.20;;;17.60;99.90;;;;;;5037257;28;21038;-43
2022/07/11 09:58:07;;;;;;;4.40;4.00;;;17.70;99.90;;;;;;5040622;28;20521;-43
2022/07/11 10:00:36;;;;;;;4.57;4.13;;;17.70;99.90;;;;;;5044279;28;20421;-46
2022/07/11 10:03:03;;;;;;;5.30;4.80;;;17.70;99.90;;;;;;5040584;28;20504;-43
2022/07/11 10:05:30;;;;;;;4.33;4.03;;;17.80;99.90;;;;;;5044289;28;20578;-43
2022/07/11 10:07:57;;;;;;;6.27;5.30;;;17.80;99.90;;;;;;5039539;28;20821;-43
2022/07/11 10:10:24;;;;;;;9.10;6.70;;;17.80;99.90;;;;;;5047799;28;20490;-45
2022/07/11 10:12:51;;;;;;;10.70;8.10;;;17.70;99.90;;;;;;5035912;28;20563;-43
2022/07/11 10:15:20;;;;;;;7.47;6.77;;;17.70;99.90;;;;;;5046832;28;20460;-42
2022/07/11 10:18:02;;;;;;;9.47;7.70;;;17.70;99.90;;;;;;5030590;28;20449;-46
2022/07/11 10:20:46;;;;;;;6.37;5.77;;;17.80;99.90;;;;;;5031086;28;20421;-44
2022/07/11 10:23:20;;;;;;;7.07;6.47;;;17.80;99.90;;;;;;5031055;28;20428;-43
2022/07/11 10:26:19;;;;;;;5.87;5.37;;;17.90;99.90;;;;;;5039406;28;20415;-45
2022/07/11 10:28:52;;;;;;;6.47;5.87;;;17.90;99.90;;;;;;5028866;28;20459;-44
2022/07/11 10:31:22;;;;;;;3.93;3.57;;;17.90;99.90;;;;;;5030999;28;20424;-43
2022/07/11 10:34:06;;;;;;;3.60;3.30;;;18.00;99.90;;;;;;5030789;28;20974;-44
2022/07/11 10:36:33;;;;;;;2.40;2.20;;;18.00;99.90;;;;;;5030593;28;20460;-42
2022/07/11 10:39:18;;;;;;;2.73;2.43;;;18.10;99.90;;;;;;5030556;28;20429;-46
2022/07/11 10:41:47;;;;;;;2.50;2.30;;;18.20;99.90;;;;;;5038256;28;20416;-47
2022/07/11 10:44:13;;;;;;;2.00;1.80;;;18.20;99.90;;;;;;5050620;28;20462;-46
2022/07/11 10:46:39;;;;;;;3.13;2.50;;;18.30;99.90;;;;;;5049959;28;20464;-44
2022/07/11 10:49:13;;;;;;;2.83;2.20;;;18.30;99.90;;;;;;5050179;28;20432;-43
2022/07/11 10:51:57;;;;;;;4.00;1.80;;;18.40;99.90;;;;;;5050487;28;20189;-45
2022/07/11 10:54:41;;;;;;;1.60;1.50;;;18.40;99.90;;;;;;5050303;28;20543;-43
2022/07/11 10:57:16;;;;;;;1.60;1.50;;;18.50;99.90;;;;;;5049700;28;20419;-48
2022/07/11 10:59:58;;;;;;;1.97;1.70;;;18.60;99.90;;;;;;5050050;28;20416;-43
2022/07/11 11:02:24;;;;;;;3.60;1.60;;;18.50;99.90;;;;;;5050445;28;20470;-43
2022/07/11 11:04:58;;;;;;;1.67;1.57;;;18.50;99.90;;;;;;5050238;28;20531;-43
2022/07/11 11:07:36;;;;;;;2.03;1.80;;;18.40;99.90;;;;;;5049556;28;20474;-46
2022/07/11 11:10:06;;;;;;;3.40;1.50;;;18.40;99.90;;;;;;5049945;28;20495;-42
2022/07/11 11:13:13;;;;;;;1.43;0.93;;;18.40;99.90;;;;;;5050036;28;20436;-43
2022/07/11 11:15:43;;;;;;;1.50;1.30;;;18.40;99.90;;;;;;5049096;28;20460;-45
2022/07/11 11:18:27;;;;;;;2.90;1.70;;;18.50;99.90;;;;;;5036275;28;20429;-48
2022/07/11 11:21:06;;;;;;;2.03;1.93;;;18.40;99.90;;;;;;5040570;28;20424;-43
2022/07/11 11:23:32;;;;;;;2.20;1.77;;;18.40;99.90;;;;;;5034853;28;20413;-43
2022/07/11 11:26:15;;;;;;;1.73;1.63;;;18.40;99.90;;;;;;5040120;28;20435;-44
2022/07/11 11:29:05;;;;;;;2.07;1.70;;;18.40;99.90;;;;;;5047962;28;20518;-43
2022/07/11 11:31:32;;;;;;;2.10;1.90;;;18.50;99.90;;;;;;5049859;28;20436;-42
2022/07/11 11:34:00;;;;;;;2.30;2.13;;;18.50;99.90;;;;;;5049923;28;20435;-43
2022/07/11 11:36:27;;;;;;;2.47;1.80;;;18.50;99.90;;;;;;5049727;28;20829;-43
2022/07/11 11:38:53;;;;;;;2.40;2.23;;;18.70;99.90;;;;;;5049257;28;20436;-43
2022/07/11 11:41:30;;;;;;;2.40;2.00;;;18.70;99.90;;;;;;5049424;28;20428;-44
2022/07/11 11:43:58;;;;;;;2.20;1.93;;;18.80;99.90;;;;;;5049927;28;20834;-43
2022/07/11 11:46:29;;;;;;;1.80;1.70;;;18.80;99.90;;;;;;5049674;28;20452;-43
2022/07/11 11:49:00;;;;;;;2.20;1.50;;;18.80;99.90;;;;;;5048724;28;20431;-43
2022/07/11 11:51:31;;;;;;;2.10;1.63;;;18.80;99.90;;;;;;5048536;28;20434;-42
2022/07/11 11:53:59;;;;;;;1.63;1.50;;;18.70;99.90;;;;;;5049321;28;20818;-45
2022/07/11 11:56:28;;;;;;;1.80;1.70;;;18.70;99.90;;;;;;5049830;28;20428;-45
2022/07/11 11:59:00;;;;;;;2.00;1.90;;;18.70;99.90;;;;;;5048905;28;20974;-43
2022/07/11 12:01:34;;;;;;;2.13;1.67;;;18.60;99.90;;;;;;5049626;28;20432;-43
2022/07/11 12:04:02;;;;;;;2.20;1.67;;;18.60;99.90;;;;;;5049393;28;20424;-43
2022/07/11 12:06:33;;;;;;;2.43;2.23;;;18.60;99.90;;;;;;5049361;28;21150;-43
2022/07/11 12:09:09;;;;;;;3.27;2.30;;;18.60;99.90;;;;;;5049301;28;20477;-43
2022/07/11 12:11:36;;;;;;;2.00;1.90;;;18.70;99.90;;;;;;5049575;28;20431;-43
2022/07/11 12:14:06;;;;;;;2.13;1.93;;;18.70;99.90;;;;;;5048470;28;20427;-43
2022/07/11 12:16:43;;;;;;;1.87;1.40;;;18.80;99.90;;;;;;5048181;28;20417;-43
2022/07/11 12:19:11;;;;;;;2.50;1.93;;;18.80;99.90;;;;;;5029514;28;20425;-44
2022/07/11 12:21:39;;;;;;;2.40;2.20;;;18.80;99.90;;;;;;5040805;28;20427;-44
2022/07/11 12:24:07;;;;;;;2.23;2.03;;;18.90;99.90;;;;;;5029748;28;20433;-43
2022/07/11 12:26:37;;;;;;;2.70;2.50;;;18.90;99.90;;;;;;5046309;28;20412;-43
2022/07/11 12:29:13;;;;;;;2.40;1.90;;;18.90;99.90;;;;;;5053029;28;20760;-44
2022/07/11 12:31:47;;;;;;;1.83;1.73;;;18.90;99.90;;;;;;5053000;28;20506;-43
2022/07/11 12:34:14;;;;;;;2.20;2.00;;;19.00;99.90;;;;;;5053217;28;20452;-43
2022/07/11 12:36:40;;;;;;;2.43;2.10;;;19.00;99.90;;;;;;5052276;28;20420;-43
2022/07/11 12:39:05;;;;;;;2.00;1.90;;;19.00;99.90;;;;;;5053030;28;20435;-43
2022/07/11 12:41:33;;;;;;;2.23;2.13;;;19.00;99.90;;;;;;5052704;28;20592;-45
2022/07/11 12:46:43;;;;;;;7.27;6.70;;;19.10;99.90;;;;;;5052127;28;20442;-43
2022/07/11 12:49:11;;;;;;;5.73;5.40;;;19.10;99.90;;;;;;5052493;28;20431;-47
2022/07/11 12:51:41;;;;;;;7.80;7.20;;;19.20;99.90;;;;;;5052542;28;20557;-45
2022/07/11 12:54:08;;;;;;;6.90;6.40;;;19.30;99.90;;;;;;5052350;28;20463;-45
2022/07/11 12:56:35;;;;;;;7.20;6.70;;;19.30;99.90;;;;;;5052353;28;20515;-44
2022/07/11 12:59:03;;;;;;;6.50;6.10;;;19.40;99.90;;;;;;5052340;28;20966;-42
2022/07/11 13:01:30;;;;;;;5.33;5.03;;;19.40;99.90;;;;;;5052768;28;20764;-43